TimeCST,TemperatureF,Dew PointF,Humidity,Sea Level PressureIn,VisibilityMPH,Wind Direction,Wind SpeedMPH,Gust SpeedMPH,PrecipitationIn,Events,Conditions,WindDirDegrees,DateUTC
12:00 AM,73,68,78,,9,NE,3.5,,,,Haze,40,2012-10-27 06:00:00
12:00 AM,73.4,68.0,83,-9999,6.2,NE,3.5,-,N/A,,Scattered Clouds,40,2012-10-27 06:00:00
1:00 AM,73.4,68.0,83,-9999,6.2,NNE,3.5,-,N/A,,Scattered Clouds,20,2012-10-27 07:00:00
2:00 AM,71.6,68.0,88,-9999,6.2,Calm,Calm,-,N/A,,Scattered Clouds,0,2012-10-27 08:00:00
3:00 AM,70,67,87,,9,Calm,Calm,,,,Haze,,2012-10-27 09:00:00
3:00 AM,69.8,66.2,88,-9999,6.2,Calm,Calm,-,N/A,,Scattered Clouds,0,2012-10-27 09:00:00
4:00 AM,68.0,66.2,94,-9999,6.2,Calm,Calm,-,N/A,,Scattered Clouds,0,2012-10-27 10:00:00
5:00 AM,68.0,66.2,94,-9999,6.2,North,2.3,-,N/A,,Scattered Clouds,350,2012-10-27 11:00:00
6:00 AM,67,66,96,,11,WSW,3.5,,,,Haze,250,2012-10-27 12:00:00
6:00 AM,68.0,66.2,94,-9999,6.2,WSW,3.5,-,N/A,,Scattered Clouds,250,2012-10-27 12:00:00
7:00 AM,71.6,66.2,83,-9999,6.2,North,2.3,-,N/A,,Scattered Clouds,360,2012-10-27 13:00:00
8:00 AM,77.0,69.8,78,-9999,6.2,NE,2.3,-,N/A,,Partly Cloudy,40,2012-10-27 14:00:00
9:00 AM,78,69,68,,12,NNE,2.3,,,,Scattered Clouds,30,2012-10-27 15:00:00
9:00 AM,78.8,69.8,74,-9999,6.2,NNE,2.3,-,N/A,,Partly Cloudy,30,2012-10-27 15:00:00
10:00 AM,80.6,69.8,70,-9999,6.2,NNE,2.3,-,N/A,,Partly Cloudy,30,2012-10-27 16:00:00
11:00 AM,80.6,69.8,70,-9999,6.2,NNE,2.3,-,N/A,,Partly Cloudy,30,2012-10-27 17:00:00
12:00 PM,87,72,54,,16,ESE,4.6,,,,Partly Cloudy,120,2012-10-27 18:00:00
12:00 PM,86.0,73.4,66,-9999,6.2,ESE,4.6,-,N/A,,Scattered Clouds,120,2012-10-27 18:00:00
1:00 PM,87.8,73.4,62,-9999,6.2,South,2.3,-,N/A,,Scattered Clouds,180,2012-10-27 19:00:00
2:00 PM,86.0,75.2,70,-9999,6.2,South,2.3,-,N/A,,Scattered Clouds,180,2012-10-27 20:00:00
3:00 PM,89,71,47,,16,SSW,2.3,,,,Partly Cloudy,200,2012-10-27 21:00:00
3:00 PM,89.6,71.6,55,-9999,6.2,SSW,2.3,-,N/A,,Scattered Clouds,200,2012-10-27 21:00:00
5:00 PM,84.2,71.6,66,-9999,6.2,WNW,2.3,-,N/A,,Scattered Clouds,300,2012-10-27 23:00:00
6:00 PM,85,71,55,,12,SSW,2.3,,,,Partly Cloudy,200,2012-10-28 00:00:00
6:00 PM,84.2,71.6,66,-9999,6.2,SSW,2.3,-,N/A,,Scattered Clouds,200,2012-10-28 00:00:00
7:00 PM,84.2,71.6,66,-9999,6.2,East,2.3,-,N/A,,Scattered Clouds,80,2012-10-28 01:00:00
8:00 PM,80.6,71.6,74,-9999,6.2,East,4.6,-,N/A,,Scattered Clouds,100,2012-10-28 02:00:00
9:00 PM,80,71,68,,16,East,4.6,,,,Partly Cloudy,100,2012-10-28 03:00:00
9:00 PM,78.8,71.6,78,-9999,6.2,East,4.6,-,N/A,,Scattered Clouds,100,2012-10-28 03:00:00
10:00 PM,77.0,71.6,83,-9999,6.2,ESE,2.3,-,N/A,,Scattered Clouds,120,2012-10-28 04:00:00
11:00 PM,73.4,71.6,94,-9999,6.2,SE,2.3,-,N/A,,Scattered Clouds,140,2012-10-28 05:00:00